Taisho Maru — JI3307 — position and weather

sailwx.info

Track history (hours):
 
Tides and Currents Weather Stations Pressure Air Temp Water Temp Dewpoint Dewpoint Depression Visibility Wind Speed Wind Dir Waves Ship Positions

Taisho Maru

Last reported at 2015-Apr-08 22:22 UTC. Time now 2015-Apr-18 04:51 UTC.
Position N 35°43' E 140°57'.
Warning: this ship's position is 9 days out of date.

Length 93 m; draft 6 m.

Type: Cargo ship. MMSI: 431300084.

Date/timePositionNaut miles runAvg speedWind from/ knotsBaromVisibWave heightAir tempDewpointWater temp
2015-Apr-08 22:22N 35°43' E 140°57'1010.0
2015-Apr-08 21:24N 35°34' E 140°53'910.5
2015-Apr-08 20:33N 35°27' E 140°46'1110.7
2015-Apr-08 19:31N 35°18' E 140°38'29 9.9
2015-Apr-08 16:33N 34°57' E 140°13'1010.3
2015-Apr-08 15:33N 34°52' E 140°02'1110.6
2015-Apr-08 14:29N 34°52' E 139°48'1112.0
2015-Apr-08 13:33N 35°00' E 139°40'1312.7
2015-Apr-08 12:33N 35°12' E 139°46'1111.5
2015-Apr-08 11:34N 35°23' E 139°42'2 1.7
2015-Apr-08 10:29N 35°24' E 139°45'0 0.0
2015-Apr-08 09:32N 35°24' E 139°45'0 0.0
2015-Apr-08 08:32N 35°24' E 139°45'0 0.0
2015-Apr-08 07:32N 35°24' E 139°45'0 0.0
2015-Apr-08 06:32N 35°24' E 139°45'0 0.0
2015-Apr-08 05:32N 35°24' E 139°45'0 0.0
2015-Apr-08 04:32N 35°24' E 139°45'0 0.0
2015-Apr-08 03:32N 35°24' E 139°45'0 0.0
2015-Apr-08 02:32N 35°24' E 139°45'0 0.0
2015-Apr-08 01:32N 35°24' E 139°45'0 0.0
2015-Apr-08 00:32N 35°24' E 139°45'0 0.0
2015-Apr-07 23:32N 35°24' E 139°45'2 2.1
2015-Apr-07 22:33N 35°25' E 139°43'4 4.3
2015-Apr-07 21:33N 35°29' E 139°40'0 0.0
2015-Apr-07 20:33N 35°29' E 139°40'0 0.0
2015-Apr-07 19:33N 35°29' E 139°40'0 0.0
2015-Apr-07 18:33N 35°29' E 139°40'0 0.0
2015-Apr-07 17:33N 35°29' E 139°40'0 0.0
2015-Apr-07 16:33N 35°29' E 139°40'0 0.0
2015-Apr-07 15:33N 35°29' E 139°40'0 0.0
2015-Apr-07 14:33N 35°29' E 139°40'0 0.0
2015-Apr-07 13:33N 35°29' E 139°40'0 0.0
2015-Apr-07 12:33N 35°29' E 139°40'0 0.0
2015-Apr-07 11:33N 35°29' E 139°40'0 0.0
2015-Apr-07 10:33N 35°29' E 139°40'0 0.0
2015-Apr-07 09:33N 35°29' E 139°40'0 0.0
2015-Apr-07 08:33N 35°29' E 139°40'0 0.0
2015-Apr-07 07:33N 35°29' E 139°40'0 0.0
2015-Apr-07 06:33N 35°29' E 139°40'4 3.7
2015-Apr-07 05:32N 35°26' E 139°43'3 3.1
2015-Apr-07 04:29N 35°23' E 139°44'0 0.0
2015-Apr-07 03:17N 35°22' E 139°44'0 0.0
2015-Apr-07 02:32N 35°22' E 139°44'0 0.0
2015-Apr-07 01:32N 35°22' E 139°44'0 0.0
2015-Apr-07 00:32N 35°22' E 139°44'0 0.0
2015-Apr-06 23:32N 35°22' E 139°44'0 0.0
2015-Apr-06 22:32N 35°22' E 139°44'0 0.0
2015-Apr-06 21:32N 35°22' E 139°44'0 0.0
2015-Apr-06 20:32N 35°22' E 139°44'0 0.0
2015-Apr-06 19:32N 35°22' E 139°44'0 0.0
2015-Apr-06 18:32N 35°23' E 139°44'0 0.0
2015-Apr-06 17:32N 35°23' E 139°44'2 2.0
2015-Apr-06 16:33N 35°21' E 139°43'1211.6
2015-Apr-06 15:33N 35°09' E 139°46'1212.1
2015-Apr-06 14:33N 35°00' E 139°37'  
2015-Apr-04 06:10N 33°56' E 130°21'811.7
2015-Apr-04 05:30N 33°51' E 130°13'1111.6
2015-Apr-04 04:31N 33°44' E 130°02'15 0.5
2015-Apr-02 20:19N 33°35' E 129°48'810.9
2015-Apr-02 19:33N 33°41' E 129°55'1211.7
2015-Apr-02 18:32N 33°48' E 130°07'1611.5
2015-Apr-02 17:06N 33°57' E 130°23'  
Track history (hours):
 
Tides and Currents Weather Stations Pressure Air Temp Water Temp Dewpoint Dewpoint Depression Visibility Wind Speed Wind Dir Waves Ship Positions

Taisho Maru

Last reported at 2015-Apr-08 22:22 UTC. Time now 2015-Apr-18 04:51 UTC.
Position N 35°43' E 140°57'.
Warning: this ship's position is 9 days out of date.

Length 93 m; draft 6 m.

Type: Cargo ship. MMSI: 431300084.

Date/timePositionNaut miles runAvg speedWind from/ knotsBaromVisibWave heightAir tempDewpointWater temp
2015-Apr-08 22:22N 35°43' E 140°57'1010.0
2015-Apr-08 21:24N 35°34' E 140°53'910.5
2015-Apr-08 20:33N 35°27' E 140°46'1110.7
2015-Apr-08 19:31N 35°18' E 140°38'29 9.9
2015-Apr-08 16:33N 34°57' E 140°13'1010.3
2015-Apr-08 15:33N 34°52' E 140°02'1110.6
2015-Apr-08 14:29N 34°52' E 139°48'1112.0
2015-Apr-08 13:33N 35°00' E 139°40'1312.7
2015-Apr-08 12:33N 35°12' E 139°46'1111.5
2015-Apr-08 11:34N 35°23' E 139°42'2 1.7
2015-Apr-08 10:29N 35°24' E 139°45'0 0.0
2015-Apr-08 09:32N 35°24' E 139°45'0 0.0
2015-Apr-08 08:32N 35°24' E 139°45'0 0.0
2015-Apr-08 07:32N 35°24' E 139°45'0 0.0
2015-Apr-08 06:32N 35°24' E 139°45'0 0.0
2015-Apr-08 05:32N 35°24' E 139°45'0 0.0
2015-Apr-08 04:32N 35°24' E 139°45'0 0.0
2015-Apr-08 03:32N 35°24' E 139°45'0 0.0
2015-Apr-08 02:32N 35°24' E 139°45'0 0.0
2015-Apr-08 01:32N 35°24' E 139°45'0 0.0
2015-Apr-08 00:32N 35°24' E 139°45'0 0.0
2015-Apr-07 23:32N 35°24' E 139°45'2 2.1
2015-Apr-07 22:33N 35°25' E 139°43'4 4.3
2015-Apr-07 21:33N 35°29' E 139°40'0 0.0
2015-Apr-07 20:33N 35°29' E 139°40'0 0.0
2015-Apr-07 19:33N 35°29' E 139°40'0 0.0
2015-Apr-07 18:33N 35°29' E 139°40'0 0.0
2015-Apr-07 17:33N 35°29' E 139°40'0 0.0
2015-Apr-07 16:33N 35°29' E 139°40'0 0.0
2015-Apr-07 15:33N 35°29' E 139°40'0 0.0
2015-Apr-07 14:33N 35°29' E 139°40'0 0.0
2015-Apr-07 13:33N 35°29' E 139°40'0 0.0
2015-Apr-07 12:33N 35°29' E 139°40'0 0.0
2015-Apr-07 11:33N 35°29' E 139°40'0 0.0
2015-Apr-07 10:33N 35°29' E 139°40'0 0.0
2015-Apr-07 09:33N 35°29' E 139°40'0 0.0
2015-Apr-07 08:33N 35°29' E 139°40'0 0.0
2015-Apr-07 07:33N 35°29' E 139°40'0 0.0
2015-Apr-07 06:33N 35°29' E 139°40'4 3.7
2015-Apr-07 05:32N 35°26' E 139°43'3 3.1
2015-Apr-07 04:29N 35°23' E 139°44'0 0.0
2015-Apr-07 03:17N 35°22' E 139°44'0 0.0
2015-Apr-07 02:32N 35°22' E 139°44'0 0.0
2015-Apr-07 01:32N 35°22' E 139°44'0 0.0
2015-Apr-07 00:32N 35°22' E 139°44'0 0.0
2015-Apr-06 23:32N 35°22' E 139°44'0 0.0
2015-Apr-06 22:32N 35°22' E 139°44'0 0.0
2015-Apr-06 21:32N 35°22' E 139°44'0 0.0
2015-Apr-06 20:32N 35°22' E 139°44'0 0.0
2015-Apr-06 19:32N 35°22' E 139°44'0 0.0
2015-Apr-06 18:32N 35°23' E 139°44'0 0.0
2015-Apr-06 17:32N 35°23' E 139°44'2 2.0
2015-Apr-06 16:33N 35°21' E 139°43'1211.6
2015-Apr-06 15:33N 35°09' E 139°46'1212.1
2015-Apr-06 14:33N 35°00' E 139°37'  
2015-Apr-04 06:10N 33°56' E 130°21'811.7
2015-Apr-04 05:30N 33°51' E 130°13'1111.6
2015-Apr-04 04:31N 33°44' E 130°02'15 0.5
2015-Apr-02 20:19N 33°35' E 129°48'810.9
2015-Apr-02 19:33N 33°41' E 129°55'1211.7
2015-Apr-02 18:32N 33°48' E 130°07'1611.5
2015-Apr-02 17:06N 33°57' E 130°23'  

Dump ship's entire track history